sensor_id;sensor_type;location;lat;lon;timestamp;P1;durP1;ratioP1;P2;durP2;ratioP2
20344;SDS011;10330;48.816;9.278;2023-11-22T00:00:22;6.07;;;3.35;;
20344;SDS011;10330;48.816;9.278;2023-11-22T00:02:48;5.35;;;3.63;;
20344;SDS011;10330;48.816;9.278;2023-11-22T00:05:14;5.07;;;2.90;;
20344;SDS011;10330;48.816;9.278;2023-11-22T00:07:40;3.45;;;3.03;;
20344;SDS011;10330;48.816;9.278;2023-11-22T00:10:07;3.33;;;2.55;;
20344;SDS011;10330;48.816;9.278;2023-11-22T00:12:34;2.28;;;1.98;;
20344;SDS011;10330;48.816;9.278;2023-11-22T00:15:04;1.95;;;1.85;;
20344;SDS011;10330;48.816;9.278;2023-11-22T00:17:32;2.30;;;2.10;;
20344;SDS011;10330;48.816;9.278;2023-11-22T00:19:59;1.95;;;1.85;;
20344;SDS011;10330;48.816;9.278;2023-11-22T00:22:34;2.65;;;2.45;;
20344;SDS011;10330;48.816;9.278;2023-11-22T00:25:00;4.05;;;2.53;;
20344;SDS011;10330;48.816;9.278;2023-11-22T00:27:27;2.42;;;2.33;;
20344;SDS011;10330;48.816;9.278;2023-11-22T00:29:55;2.17;;;2.05;;
20344;SDS011;10330;48.816;9.278;2023-11-22T00:32:22;4.50;;;3.03;;
20344;SDS011;10330;48.816;9.278;2023-11-22T00:34:48;5.10;;;2.50;;
20344;SDS011;10330;48.816;9.278;2023-11-22T00:37:15;6.50;;;2.97;;
20344;SDS011;10330;48.816;9.278;2023-11-22T00:39:42;5.75;;;3.35;;
20344;SDS011;10330;48.816;9.278;2023-11-22T00:42:08;3.40;;;3.08;;
20344;SDS011;10330;48.816;9.278;2023-11-22T00:44:34;3.80;;;2.92;;
20344;SDS011;10330;48.816;9.278;2023-11-22T00:47:02;4.93;;;3.25;;
20344;SDS011;10330;48.816;9.278;2023-11-22T00:49:28;9.73;;;3.90;;
20344;SDS011;10330;48.816;9.278;2023-11-22T00:51:54;3.22;;;2.92;;
20344;SDS011;10330;48.816;9.278;2023-11-22T00:54:20;3.63;;;3.33;;
20344;SDS011;10330;48.816;9.278;2023-11-22T00:56:47;3.17;;;2.97;;
20344;SDS011;10330;48.816;9.278;2023-11-22T00:59:16;3.05;;;2.83;;
20344;SDS011;10330;48.816;9.278;2023-11-22T01:01:42;5.13;;;3.30;;
20344;SDS011;10330;48.816;9.278;2023-11-22T01:04:08;4.00;;;3.60;;
20344;SDS011;10330;48.816;9.278;2023-11-22T01:06:35;4.55;;;3.20;;
20344;SDS011;10330;48.816;9.278;2023-11-22T01:09:02;3.33;;;2.97;;
20344;SDS011;10330;48.816;9.278;2023-11-22T01:11:29;3.45;;;3.03;;
20344;SDS011;10330;48.816;9.278;2023-11-22T01:13:55;4.72;;;3.95;;
20344;SDS011;10330;48.816;9.278;2023-11-22T01:16:22;5.88;;;3.90;;
20344;SDS011;10330;48.816;9.278;2023-11-22T01:18:49;4.93;;;4.00;;
20344;SDS011;10330;48.816;9.278;2023-11-22T01:21:15;6.65;;;3.85;;
20344;SDS011;10330;48.816;9.278;2023-11-22T01:23:41;6.05;;;4.13;;
20344;SDS011;10330;48.816;9.278;2023-11-22T01:26:07;4.18;;;3.63;;
20344;SDS011;10330;48.816;9.278;2023-11-22T01:28:33;6.90;;;4.28;;
20344;SDS011;10330;48.816;9.278;2023-11-22T01:31:02;4.95;;;4.30;;
20344;SDS011;10330;48.816;9.278;2023-11-22T01:33:30;4.10;;;3.58;;
20344;SDS011;10330;48.816;9.278;2023-11-22T01:35:57;5.15;;;4.00;;
20344;SDS011;10330;48.816;9.278;2023-11-22T01:38:24;9.27;;;4.00;;
20344;SDS011;10330;48.816;9.278;2023-11-22T01:40:51;6.30;;;3.92;;
20344;SDS011;10330;48.816;9.278;2023-11-22T01:43:18;3.90;;;3.20;;
20344;SDS011;10330;48.816;9.278;2023-11-22T01:45:45;4.13;;;3.72;;
20344;SDS011;10330;48.816;9.278;2023-11-22T01:48:11;4.00;;;3.58;;
20344;SDS011;10330;48.816;9.278;2023-11-22T01:50:38;3.47;;;3.17;;
20344;SDS011;10330;48.816;9.278;2023-11-22T01:53:06;3.40;;;3.13;;
20344;SDS011;10330;48.816;9.278;2023-11-22T01:55:37;3.55;;;3.25;;
20344;SDS011;10330;48.816;9.278;2023-11-22T01:58:05;3.20;;;2.90;;
20344;SDS011;10330;48.816;9.278;2023-11-22T02:00:32;4.00;;;3.20;;
20344;SDS011;10330;48.816;9.278;2023-11-22T02:03:05;3.22;;;2.92;;
20344;SDS011;10330;48.816;9.278;2023-11-22T02:05:32;4.05;;;3.60;;
20344;SDS011;10330;48.816;9.278;2023-11-22T02:07:59;4.60;;;3.40;;
20344;SDS011;10330;48.816;9.278;2023-11-22T02:10:25;3.42;;;3.08;;
20344;SDS011;10330;48.816;9.278;2023-11-22T02:12:51;3.47;;;3.13;;
20344;SDS011;10330;48.816;9.278;2023-11-22T02:15:17;3.45;;;2.63;;
20344;SDS011;10330;48.816;9.278;2023-11-22T02:17:44;4.97;;;3.15;;
20344;SDS011;10330;48.816;9.278;2023-11-22T02:20:10;4.25;;;3.50;;
20344;SDS011;10330;48.816;9.278;2023-11-22T02:22:43;3.53;;;3.22;;
20344;SDS011;10330;48.816;9.278;2023-11-22T02:25:11;3.35;;;2.97;;
20344;SDS011;10330;48.816;9.278;2023-11-22T02:27:38;9.10;;;3.42;;
20344;SDS011;10330;48.816;9.278;2023-11-22T02:30:05;4.57;;;2.95;;
20344;SDS011;10330;48.816;9.278;2023-11-22T02:32:32;3.58;;;3.08;;
20344;SDS011;10330;48.816;9.278;2023-11-22T02:34:59;5.07;;;3.83;;
20344;SDS011;10330;48.816;9.278;2023-11-22T02:37:26;3.53;;;3.22;;
20344;SDS011;10330;48.816;9.278;2023-11-22T02:40:09;4.60;;;3.15;;
20344;SDS011;10330;48.816;9.278;2023-11-22T02:42:46;5.22;;;3.58;;
20344;SDS011;10330;48.816;9.278;2023-11-22T02:45:17;3.92;;;3.08;;
20344;SDS011;10330;48.816;9.278;2023-11-22T02:47:44;3.47;;;3.17;;
20344;SDS011;10330;48.816;9.278;2023-11-22T02:50:15;3.22;;;2.92;;
20344;SDS011;10330;48.816;9.278;2023-11-22T02:52:42;4.22;;;3.25;;
20344;SDS011;10330;48.816;9.278;2023-11-22T02:55:09;5.35;;;2.95;;
20344;SDS011;10330;48.816;9.278;2023-11-22T02:57:38;7.07;;;2.90;;
20344;SDS011;10330;48.816;9.278;2023-11-22T03:00:08;5.88;;;2.85;;
20344;SDS011;10330;48.816;9.278;2023-11-22T03:02:39;3.25;;;2.95;;
20344;SDS011;10330;48.816;9.278;2023-11-22T03:05:10;3.40;;;3.00;;
20344;SDS011;10330;48.816;9.278;2023-11-22T03:07:36;2.92;;;2.70;;
20344;SDS011;10330;48.816;9.278;2023-11-22T03:10:03;3.45;;;2.78;;
20344;SDS011;10330;48.816;9.278;2023-11-22T03:12:30;4.75;;;3.08;;
20344;SDS011;10330;48.816;9.278;2023-11-22T03:14:56;3.92;;;3.10;;
20344;SDS011;10330;48.816;9.278;2023-11-22T03:17:29;2.80;;;2.60;;
20344;SDS011;10330;48.816;9.278;2023-11-22T03:19:55;4.65;;;3.85;;
20344;SDS011;10330;48.816;9.278;2023-11-22T03:22:23;4.22;;;2.78;;
20344;SDS011;10330;48.816;9.278;2023-11-22T03:24:50;3.47;;;3.08;;
20344;SDS011;10330;48.816;9.278;2023-11-22T03:27:16;4.28;;;2.90;;
20344;SDS011;10330;48.816;9.278;2023-11-22T03:29:44;4.32;;;3.17;;
20344;SDS011;10330;48.816;9.278;2023-11-22T03:32:11;3.45;;;3.15;;
20344;SDS011;10330;48.816;9.278;2023-11-22T03:34:39;2.92;;;2.67;;
20344;SDS011;10330;48.816;9.278;2023-11-22T03:37:05;3.50;;;3.15;;
20344;SDS011;10330;48.816;9.278;2023-11-22T03:39:31;6.03;;;3.35;;
20344;SDS011;10330;48.816;9.278;2023-11-22T03:41:57;4.32;;;3.47;;
20344;SDS011;10330;48.816;9.278;2023-11-22T03:44:23;3.00;;;2.80;;
20344;SDS011;10330;48.816;9.278;2023-11-22T03:46:50;4.35;;;3.35;;
20344;SDS011;10330;48.816;9.278;2023-11-22T03:49:16;3.58;;;3.00;;
20344;SDS011;10330;48.816;9.278;2023-11-22T03:51:43;5.38;;;3.30;;
20344;SDS011;10330;48.816;9.278;2023-11-22T03:54:09;4.13;;;3.22;;
20344;SDS011;10330;48.816;9.278;2023-11-22T03:56:38;4.68;;;3.40;;
20344;SDS011;10330;48.816;9.278;2023-11-22T03:59:04;4.80;;;3.47;;
20344;SDS011;10330;48.816;9.278;2023-11-22T04:01:30;5.70;;;3.03;;
20344;SDS011;10330;48.816;9.278;2023-11-22T04:03:56;3.45;;;3.15;;
20344;SDS011;10330;48.816;9.278;2023-11-22T04:06:22;3.65;;;3.25;;
20344;SDS011;10330;48.816;9.278;2023-11-22T04:08:48;4.22;;;3.72;;
20344;SDS011;10330;48.816;9.278;2023-11-22T04:11:15;3.47;;;3.05;;
20344;SDS011;10330;48.816;9.278;2023-11-22T04:13:43;5.55;;;3.38;;
20344;SDS011;10330;48.816;9.278;2023-11-22T04:16:09;3.45;;;2.92;;
20344;SDS011;10330;48.816;9.278;2023-11-22T04:18:39;7.55;;;3.67;;
20344;SDS011;10330;48.816;9.278;2023-11-22T04:21:06;5.15;;;4.13;;
20344;SDS011;10330;48.816;9.278;2023-11-22T04:23:33;5.03;;;3.78;;
20344;SDS011;10330;48.816;9.278;2023-11-22T04:25:59;4.43;;;3.08;;
20344;SDS011;10330;48.816;9.278;2023-11-22T04:28:26;8.35;;;3.25;;
20344;SDS011;10330;48.816;9.278;2023-11-22T04:30:55;4.15;;;3.75;;
20344;SDS011;10330;48.816;9.278;2023-11-22T04:33:22;5.70;;;3.90;;
20344;SDS011;10330;48.816;9.278;2023-11-22T04:35:49;5.38;;;4.20;;
20344;SDS011;10330;48.816;9.278;2023-11-22T04:38:16;6.28;;;3.90;;
20344;SDS011;10330;48.816;9.278;2023-11-22T04:40:43;4.18;;;3.80;;
20344;SDS011;10330;48.816;9.278;2023-11-22T04:43:10;4.97;;;3.58;;
20344;SDS011;10330;48.816;9.278;2023-11-22T04:45:36;5.05;;;3.45;;
20344;SDS011;10330;48.816;9.278;2023-11-22T04:48:05;4.47;;;3.40;;
20344;SDS011;10330;48.816;9.278;2023-11-22T04:50:35;3.10;;;2.80;;
20344;SDS011;10330;48.816;9.278;2023-11-22T04:53:01;4.65;;;3.30;;
20344;SDS011;10330;48.816;9.278;2023-11-22T04:55:27;3.25;;;2.75;;
20344;SDS011;10330;48.816;9.278;2023-11-22T04:57:54;3.53;;;3.15;;
20344;SDS011;10330;48.816;9.278;2023-11-22T05:00:23;5.25;;;2.90;;
20344;SDS011;10330;48.816;9.278;2023-11-22T05:02:49;3.42;;;2.97;;
20344;SDS011;10330;48.816;9.278;2023-11-22T05:05:16;3.05;;;2.75;;
20344;SDS011;10330;48.816;9.278;2023-11-22T05:07:42;3.30;;;2.88;;
20344;SDS011;10330;48.816;9.278;2023-11-22T05:10:10;5.70;;;3.03;;
20344;SDS011;10330;48.816;9.278;2023-11-22T05:12:36;7.93;;;3.35;;
20344;SDS011;10330;48.816;9.278;2023-11-22T05:15:06;4.05;;;3.30;;
20344;SDS011;10330;48.816;9.278;2023-11-22T05:17:33;3.53;;;3.22;;
20344;SDS011;10330;48.816;9.278;2023-11-22T05:19:59;5.35;;;3.72;;
20344;SDS011;10330;48.816;9.278;2023-11-22T05:22:26;3.85;;;3.40;;
20344;SDS011;10330;48.816;9.278;2023-11-22T05:24:52;3.45;;;3.15;;
20344;SDS011;10330;48.816;9.278;2023-11-22T05:27:18;6.55;;;4.00;;
20344;SDS011;10330;48.816;9.278;2023-11-22T05:29:44;3.05;;;2.75;;
20344;SDS011;10330;48.816;9.278;2023-11-22T05:32:10;3.72;;;3.30;;
20344;SDS011;10330;48.816;9.278;2023-11-22T05:34:37;3.10;;;2.85;;
20344;SDS011;10330;48.816;9.278;2023-11-22T05:37:06;3.50;;;3.10;;
20344;SDS011;10330;48.816;9.278;2023-11-22T05:39:32;2.70;;;2.50;;
20344;SDS011;10330;48.816;9.278;2023-11-22T05:41:59;5.25;;;3.25;;
20344;SDS011;10330;48.816;9.278;2023-11-22T05:44:26;7.35;;;2.95;;
20344;SDS011;10330;48.816;9.278;2023-11-22T05:46:52;3.58;;;3.28;;
20344;SDS011;10330;48.816;9.278;2023-11-22T05:49:20;3.90;;;3.50;;
20344;SDS011;10330;48.816;9.278;2023-11-22T05:51:46;4.10;;;3.25;;
20344;SDS011;10330;48.816;9.278;2023-11-22T05:54:12;3.97;;;3.53;;
20344;SDS011;10330;48.816;9.278;2023-11-22T05:56:38;5.50;;;3.58;;
20344;SDS011;10330;48.816;9.278;2023-11-22T05:59:05;5.00;;;3.80;;
20344;SDS011;10330;48.816;9.278;2023-11-22T06:01:31;15.10;;;7.45;;
20344;SDS011;10330;48.816;9.278;2023-11-22T06:03:57;18.55;;;8.55;;
20344;SDS011;10330;48.816;9.278;2023-11-22T06:06:24;8.05;;;5.07;;
20344;SDS011;10330;48.816;9.278;2023-11-22T06:08:50;8.63;;;4.60;;
20344;SDS011;10330;48.816;9.278;2023-11-22T06:11:16;4.82;;;3.50;;
20344;SDS011;10330;48.816;9.278;2023-11-22T06:13:42;4.60;;;3.47;;
20344;SDS011;10330;48.816;9.278;2023-11-22T06:56:11;4.32;;;2.78;;
20344;SDS011;10330;48.816;9.278;2023-11-22T07:02:44;4.50;;;2.75;;
20344;SDS011;10330;48.816;9.278;2023-11-22T08:51:05;5.28;;;3.30;;
20344;SDS011;10330;48.816;9.278;2023-11-22T08:53:34;3.50;;;3.20;;
20344;SDS011;10330;48.816;9.278;2023-11-22T10:44:31;7.65;;;4.85;;
20344;SDS011;10330;48.816;9.278;2023-11-22T11:13:37;5.63;;;3.97;;
20344;SDS011;10330;48.816;9.278;2023-11-22T11:16:07;9.52;;;4.20;;
20344;SDS011;10330;48.816;9.278;2023-11-22T11:18:45;8.90;;;4.15;;
20344;SDS011;10330;48.816;9.278;2023-11-22T11:22:02;9.57;;;4.05;;
20344;SDS011;10330;48.816;9.278;2023-11-22T11:24:42;5.57;;;4.15;;
20344;SDS011;10330;48.816;9.278;2023-11-22T11:27:13;8.30;;;4.40;;
20344;SDS011;10330;48.816;9.278;2023-11-22T11:29:43;5.57;;;4.22;;
20344;SDS011;10330;48.816;9.278;2023-11-22T11:32:10;11.38;;;4.22;;
20344;SDS011;10330;48.816;9.278;2023-11-22T11:34:51;7.40;;;4.90;;
20344;SDS011;10330;48.816;9.278;2023-11-22T11:37:44;6.28;;;4.47;;
20344;SDS011;10330;48.816;9.278;2023-11-22T11:43:55;6.18;;;4.78;;
20344;SDS011;10330;48.816;9.278;2023-11-22T11:47:13;6.07;;;4.40;;
20344;SDS011;10330;48.816;9.278;2023-11-22T11:50:09;8.73;;;4.55;;
20344;SDS011;10330;48.816;9.278;2023-11-22T11:53:18;7.25;;;4.22;;
20344;SDS011;10330;48.816;9.278;2023-11-22T11:56:10;9.05;;;4.53;;
20344;SDS011;10330;48.816;9.278;2023-11-22T12:03:27;33.50;;;14.85;;
20344;SDS011;10330;48.816;9.278;2023-11-22T12:06:53;14.68;;;8.68;;
20344;SDS011;10330;48.816;9.278;2023-11-22T12:10:12;25.13;;;13.27;;
20344;SDS011;10330;48.816;9.278;2023-11-22T12:18:57;6.95;;;4.82;;
20344;SDS011;10330;48.816;9.278;2023-11-22T12:21:24;5.57;;;4.57;;
20344;SDS011;10330;48.816;9.278;2023-11-22T12:23:51;7.10;;;4.50;;
20344;SDS011;10330;48.816;9.278;2023-11-22T12:26:19;6.40;;;4.88;;
20344;SDS011;10330;48.816;9.278;2023-11-22T12:28:47;4.75;;;4.05;;
20344;SDS011;10330;48.816;9.278;2023-11-22T12:31:14;5.47;;;4.05;;
20344;SDS011;10330;48.816;9.278;2023-11-22T12:33:41;6.35;;;4.30;;
20344;SDS011;10330;48.816;9.278;2023-11-22T12:36:09;5.50;;;4.25;;
20344;SDS011;10330;48.816;9.278;2023-11-22T12:38:36;5.20;;;3.90;;
20344;SDS011;10330;48.816;9.278;2023-11-22T12:41:02;4.97;;;3.92;;
20344;SDS011;10330;48.816;9.278;2023-11-22T12:43:32;5.18;;;4.05;;
20344;SDS011;10330;48.816;9.278;2023-11-22T12:46:02;4.55;;;4.07;;
20344;SDS011;10330;48.816;9.278;2023-11-22T12:48:32;4.90;;;3.90;;
20344;SDS011;10330;48.816;9.278;2023-11-22T12:50:59;5.28;;;4.13;;
20344;SDS011;10330;48.816;9.278;2023-11-22T12:53:25;4.05;;;3.75;;
20344;SDS011;10330;48.816;9.278;2023-11-22T12:55:54;5.50;;;3.67;;
20344;SDS011;10330;48.816;9.278;2023-11-22T12:58:25;5.22;;;4.03;;
20344;SDS011;10330;48.816;9.278;2023-11-22T13:00:52;7.18;;;4.60;;
20344;SDS011;10330;48.816;9.278;2023-11-22T13:03:26;4.95;;;4.25;;
20344;SDS011;10330;48.816;9.278;2023-11-22T13:05:53;7.88;;;3.83;;
20344;SDS011;10330;48.816;9.278;2023-11-22T13:08:19;6.35;;;4.70;;
20344;SDS011;10330;48.816;9.278;2023-11-22T13:10:50;6.13;;;4.40;;
20344;SDS011;10330;48.816;9.278;2023-11-22T13:13:20;5.80;;;3.75;;
20344;SDS011;10330;48.816;9.278;2023-11-22T13:15:47;4.88;;;4.07;;
20344;SDS011;10330;48.816;9.278;2023-11-22T13:18:13;6.38;;;4.15;;
20344;SDS011;10330;48.816;9.278;2023-11-22T13:20:39;23.60;;;12.73;;
20344;SDS011;10330;48.816;9.278;2023-11-22T13:23:06;31.77;;;16.75;;
20344;SDS011;10330;48.816;9.278;2023-11-22T13:25:33;65.53;;;32.97;;
20344;SDS011;10330;48.816;9.278;2023-11-22T13:27:59;49.40;;;24.40;;
20344;SDS011;10330;48.816;9.278;2023-11-22T13:30:25;29.17;;;16.60;;
20344;SDS011;10330;48.816;9.278;2023-11-22T13:32:52;11.32;;;6.75;;
20344;SDS011;10330;48.816;9.278;2023-11-22T13:35:22;4.50;;;4.07;;
20344;SDS011;10330;48.816;9.278;2023-11-22T13:37:49;6.15;;;4.05;;
20344;SDS011;10330;48.816;9.278;2023-11-22T13:40:16;6.72;;;4.35;;
20344;SDS011;10330;48.816;9.278;2023-11-22T13:42:47;6.45;;;4.40;;
20344;SDS011;10330;48.816;9.278;2023-11-22T13:45:15;5.50;;;3.97;;
20344;SDS011;10330;48.816;9.278;2023-11-22T13:47:46;5.85;;;4.38;;
20344;SDS011;10330;48.816;9.278;2023-11-22T13:50:15;8.00;;;4.53;;
20344;SDS011;10330;48.816;9.278;2023-11-22T13:52:45;6.38;;;4.50;;
20344;SDS011;10330;48.816;9.278;2023-11-22T13:55:12;7.03;;;4.00;;
20344;SDS011;10330;48.816;9.278;2023-11-22T13:57:38;4.90;;;3.67;;
20344;SDS011;10330;48.816;9.278;2023-11-22T14:00:05;4.93;;;4.30;;
20344;SDS011;10330;48.816;9.278;2023-11-22T14:02:37;6.90;;;4.55;;
20344;SDS011;10330;48.816;9.278;2023-11-22T14:05:08;6.43;;;3.88;;
20344;SDS011;10330;48.816;9.278;2023-11-22T14:07:35;5.38;;;4.15;;
20344;SDS011;10330;48.816;9.278;2023-11-22T14:10:02;8.10;;;4.32;;
20344;SDS011;10330;48.816;9.278;2023-11-22T14:12:29;7.13;;;4.40;;
20344;SDS011;10330;48.816;9.278;2023-11-22T14:14:57;26.05;;;10.02;;
20344;SDS011;10330;48.816;9.278;2023-11-22T14:17:24;18.13;;;8.35;;
20344;SDS011;10330;48.816;9.278;2023-11-22T14:19:54;10.45;;;5.70;;
20344;SDS011;10330;48.816;9.278;2023-11-22T14:22:22;10.00;;;5.07;;
20344;SDS011;10330;48.816;9.278;2023-11-22T14:24:51;4.80;;;4.10;;
20344;SDS011;10330;48.816;9.278;2023-11-22T14:27:18;8.07;;;5.13;;
20344;SDS011;10330;48.816;9.278;2023-11-22T14:29:45;13.25;;;8.70;;
20344;SDS011;10330;48.816;9.278;2023-11-22T14:32:14;18.73;;;11.60;;
20344;SDS011;10330;48.816;9.278;2023-11-22T14:34:44;19.50;;;10.05;;
20344;SDS011;10330;48.816;9.278;2023-11-22T14:37:11;50.83;;;24.60;;
20344;SDS011;10330;48.816;9.278;2023-11-22T14:39:39;64.97;;;31.35;;
20344;SDS011;10330;48.816;9.278;2023-11-22T14:42:05;14.80;;;9.77;;
20344;SDS011;10330;48.816;9.278;2023-11-22T14:44:34;8.75;;;4.47;;
20344;SDS011;10330;48.816;9.278;2023-11-22T14:47:02;5.68;;;4.13;;
20344;SDS011;10330;48.816;9.278;2023-11-22T14:49:40;6.80;;;3.85;;
20344;SDS011;10330;48.816;9.278;2023-11-22T14:52:07;5.78;;;4.13;;
20344;SDS011;10330;48.816;9.278;2023-11-22T14:54:35;5.78;;;4.20;;
20344;SDS011;10330;48.816;9.278;2023-11-22T14:57:02;7.35;;;4.28;;
20344;SDS011;10330;48.816;9.278;2023-11-22T14:59:29;6.18;;;4.28;;
20344;SDS011;10330;48.816;9.278;2023-11-22T15:01:55;5.80;;;3.60;;
20344;SDS011;10330;48.816;9.278;2023-11-22T15:04:27;6.00;;;4.03;;
20344;SDS011;10330;48.816;9.278;2023-11-22T15:06:53;8.68;;;3.90;;
20344;SDS011;10330;48.816;9.278;2023-11-22T15:09:19;4.43;;;3.72;;
20344;SDS011;10330;48.816;9.278;2023-11-22T15:11:47;5.15;;;4.05;;
20344;SDS011;10330;48.816;9.278;2023-11-22T15:14:13;3.85;;;3.55;;
20344;SDS011;10330;48.816;9.278;2023-11-22T15:16:39;5.38;;;4.10;;
20344;SDS011;10330;48.816;9.278;2023-11-22T15:19:05;5.18;;;4.20;;
20344;SDS011;10330;48.816;9.278;2023-11-22T15:21:32;5.03;;;4.15;;
20344;SDS011;10330;48.816;9.278;2023-11-22T15:23:59;6.90;;;4.35;;
20344;SDS011;10330;48.816;9.278;2023-11-22T15:26:25;5.13;;;3.40;;
20344;SDS011;10330;48.816;9.278;2023-11-22T15:28:52;6.22;;;4.20;;
20344;SDS011;10330;48.816;9.278;2023-11-22T15:31:18;5.70;;;4.38;;
20344;SDS011;10330;48.816;9.278;2023-11-22T15:33:48;5.38;;;3.47;;
20344;SDS011;10330;48.816;9.278;2023-11-22T15:36:14;4.25;;;3.85;;
20344;SDS011;10330;48.816;9.278;2023-11-22T15:38:41;8.27;;;4.78;;
20344;SDS011;10330;48.816;9.278;2023-11-22T15:41:07;7.55;;;4.82;;
20344;SDS011;10330;48.816;9.278;2023-11-22T15:43:34;5.90;;;3.90;;
20344;SDS011;10330;48.816;9.278;2023-11-22T15:46:00;5.00;;;4.32;;
20344;SDS011;10330;48.816;9.278;2023-11-22T15:48:26;8.40;;;4.68;;
20344;SDS011;10330;48.816;9.278;2023-11-22T15:50:53;7.18;;;4.35;;
20344;SDS011;10330;48.816;9.278;2023-11-22T15:53:20;4.75;;;4.20;;
20344;SDS011;10330;48.816;9.278;2023-11-22T15:55:46;5.93;;;3.85;;
20344;SDS011;10330;48.816;9.278;2023-11-22T15:58:13;15.48;;;9.15;;
20344;SDS011;10330;48.816;9.278;2023-11-22T16:00:39;26.88;;;14.55;;
20344;SDS011;10330;48.816;9.278;2023-11-22T16:03:06;14.40;;;8.00;;
20344;SDS011;10330;48.816;9.278;2023-11-22T16:05:37;119.32;;;52.17;;
20344;SDS011;10330;48.816;9.278;2023-11-22T16:08:03;55.53;;;28.13;;
20344;SDS011;10330;48.816;9.278;2023-11-22T16:10:30;11.35;;;7.47;;
20344;SDS011;10330;48.816;9.278;2023-11-22T16:12:56;8.55;;;5.32;;
20344;SDS011;10330;48.816;9.278;2023-11-22T16:15:22;7.93;;;5.60;;
20344;SDS011;10330;48.816;9.278;2023-11-22T16:17:48;6.50;;;4.95;;
20344;SDS011;10330;48.816;9.278;2023-11-22T16:20:15;8.40;;;5.47;;
20344;SDS011;10330;48.816;9.278;2023-11-22T16:22:41;5.43;;;4.03;;
20344;SDS011;10330;48.816;9.278;2023-11-22T16:25:12;6.40;;;5.35;;
20344;SDS011;10330;48.816;9.278;2023-11-22T16:27:40;7.18;;;5.40;;
20344;SDS011;10330;48.816;9.278;2023-11-22T16:30:07;5.82;;;4.90;;
20344;SDS011;10330;48.816;9.278;2023-11-22T16:32:34;9.23;;;5.07;;
20344;SDS011;10330;48.816;9.278;2023-11-22T16:35:02;13.55;;;5.57;;
20344;SDS011;10330;48.816;9.278;2023-11-22T16:37:29;6.07;;;4.40;;
20344;SDS011;10330;48.816;9.278;2023-11-22T16:39:55;10.07;;;5.85;;
20344;SDS011;10330;48.816;9.278;2023-11-22T16:42:22;11.38;;;6.30;;
20344;SDS011;10330;48.816;9.278;2023-11-22T16:47:25;8.73;;;5.32;;
20344;SDS011;10330;48.816;9.278;2023-11-22T16:49:52;7.28;;;5.55;;
20344;SDS011;10330;48.816;9.278;2023-11-22T16:52:18;8.32;;;6.15;;
20344;SDS011;10330;48.816;9.278;2023-11-22T16:54:51;5.93;;;4.82;;
20344;SDS011;10330;48.816;9.278;2023-11-22T16:57:17;12.88;;;6.32;;
20344;SDS011;10330;48.816;9.278;2023-11-22T16:59:44;10.15;;;6.05;;
20344;SDS011;10330;48.816;9.278;2023-11-22T17:02:11;10.88;;;5.97;;
20344;SDS011;10330;48.816;9.278;2023-11-22T17:04:38;9.45;;;5.78;;
20344;SDS011;10330;48.816;9.278;2023-11-22T17:07:08;8.82;;;5.00;;
20344;SDS011;10330;48.816;9.278;2023-11-22T17:09:35;12.93;;;5.97;;
20344;SDS011;10330;48.816;9.278;2023-11-22T17:12:06;8.70;;;5.78;;
20344;SDS011;10330;48.816;9.278;2023-11-22T17:14:32;11.45;;;5.80;;
20344;SDS011;10330;48.816;9.278;2023-11-22T17:16:59;9.43;;;5.45;;
20344;SDS011;10330;48.816;9.278;2023-11-22T17:19:25;9.93;;;6.22;;
20344;SDS011;10330;48.816;9.278;2023-11-22T17:21:51;8.23;;;5.63;;
20344;SDS011;10330;48.816;9.278;2023-11-22T17:24:17;7.00;;;4.68;;
20344;SDS011;10330;48.816;9.278;2023-11-22T17:26:44;10.55;;;6.05;;
20344;SDS011;10330;48.816;9.278;2023-11-22T17:29:10;8.43;;;5.40;;
20344;SDS011;10330;48.816;9.278;2023-11-22T17:31:36;11.60;;;5.97;;
20344;SDS011;10330;48.816;9.278;2023-11-22T17:34:02;10.55;;;5.65;;
20344;SDS011;10330;48.816;9.278;2023-11-22T17:36:29;10.55;;;6.97;;
20344;SDS011;10330;48.816;9.278;2023-11-22T17:38:55;13.60;;;6.95;;
20344;SDS011;10330;48.816;9.278;2023-11-22T17:41:22;10.73;;;5.68;;
20344;SDS011;10330;48.816;9.278;2023-11-22T17:43:48;5.97;;;4.88;;
20344;SDS011;10330;48.816;9.278;2023-11-22T17:46:14;8.77;;;5.13;;
20344;SDS011;10330;48.816;9.278;2023-11-22T17:48:40;7.25;;;5.53;;
20344;SDS011;10330;48.816;9.278;2023-11-22T17:51:07;9.50;;;5.43;;
20344;SDS011;10330;48.816;9.278;2023-11-22T17:53:33;7.00;;;4.60;;
20344;SDS011;10330;48.816;9.278;2023-11-22T17:56:00;7.75;;;5.65;;
20344;SDS011;10330;48.816;9.278;2023-11-22T17:58:27;6.45;;;4.80;;
20344;SDS011;10330;48.816;9.278;2023-11-22T18:00:53;8.93;;;5.78;;
20344;SDS011;10330;48.816;9.278;2023-11-22T18:03:19;8.55;;;5.68;;
20344;SDS011;10330;48.816;9.278;2023-11-22T18:05:45;9.13;;;6.20;;
20344;SDS011;10330;48.816;9.278;2023-11-22T18:08:13;17.65;;;7.72;;
20344;SDS011;10330;48.816;9.278;2023-11-22T18:10:42;24.13;;;9.73;;
20344;SDS011;10330;48.816;9.278;2023-11-22T18:13:09;13.10;;;6.72;;
20344;SDS011;10330;48.816;9.278;2023-11-22T18:15:36;8.55;;;6.40;;
20344;SDS011;10330;48.816;9.278;2023-11-22T18:18:08;7.55;;;5.78;;
20344;SDS011;10330;48.816;9.278;2023-11-22T18:20:35;10.85;;;6.57;;
20344;SDS011;10330;48.816;9.278;2023-11-22T18:23:06;10.02;;;6.07;;
20344;SDS011;10330;48.816;9.278;2023-11-22T18:25:35;10.85;;;5.90;;
20344;SDS011;10330;48.816;9.278;2023-11-22T18:28:02;9.45;;;5.80;;
20344;SDS011;10330;48.816;9.278;2023-11-22T18:30:31;9.20;;;5.97;;
20344;SDS011;10330;48.816;9.278;2023-11-22T18:33:07;7.40;;;5.32;;
20344;SDS011;10330;48.816;9.278;2023-11-22T18:35:33;7.78;;;5.53;;
20344;SDS011;10330;48.816;9.278;2023-11-22T18:38:02;6.88;;;4.93;;
20344;SDS011;10330;48.816;9.278;2023-11-22T18:40:29;10.60;;;6.47;;
20344;SDS011;10330;48.816;9.278;2023-11-22T18:42:57;9.77;;;7.28;;
20344;SDS011;10330;48.816;9.278;2023-11-22T18:45:23;7.65;;;5.10;;
20344;SDS011;10330;48.816;9.278;2023-11-22T18:47:50;9.27;;;5.18;;
20344;SDS011;10330;48.816;9.278;2023-11-22T18:50:17;6.43;;;5.20;;
20344;SDS011;10330;48.816;9.278;2023-11-22T18:52:43;7.22;;;5.68;;
20344;SDS011;10330;48.816;9.278;2023-11-22T18:55:10;7.13;;;5.53;;
20344;SDS011;10330;48.816;9.278;2023-11-22T18:57:36;9.60;;;6.07;;
20344;SDS011;10330;48.816;9.278;2023-11-22T19:00:02;6.78;;;4.78;;
20344;SDS011;10330;48.816;9.278;2023-11-22T19:02:32;6.88;;;5.20;;
20344;SDS011;10330;48.816;9.278;2023-11-22T19:04:58;8.20;;;5.95;;
20344;SDS011;10330;48.816;9.278;2023-11-22T19:07:25;9.38;;;5.57;;
20344;SDS011;10330;48.816;9.278;2023-11-22T19:09:52;8.73;;;5.43;;
20344;SDS011;10330;48.816;9.278;2023-11-22T19:12:38;6.28;;;5.18;;
20344;SDS011;10330;48.816;9.278;2023-11-22T19:15:06;6.68;;;4.45;;
20344;SDS011;10330;48.816;9.278;2023-11-22T19:17:33;7.10;;;5.00;;
20344;SDS011;10330;48.816;9.278;2023-11-22T19:19:59;7.63;;;5.13;;
20344;SDS011;10330;48.816;9.278;2023-11-22T19:22:25;7.55;;;5.72;;
20344;SDS011;10330;48.816;9.278;2023-11-22T19:24:52;9.50;;;5.13;;
20344;SDS011;10330;48.816;9.278;2023-11-22T19:27:18;8.43;;;5.28;;
20344;SDS011;10330;48.816;9.278;2023-11-22T19:29:45;8.75;;;5.53;;
20344;SDS011;10330;48.816;9.278;2023-11-22T19:32:11;12.13;;;5.97;;
20344;SDS011;10330;48.816;9.278;2023-11-22T19:34:43;13.18;;;6.63;;
20344;SDS011;10330;48.816;9.278;2023-11-22T19:37:09;11.55;;;6.78;;
20344;SDS011;10330;48.816;9.278;2023-11-22T19:39:36;9.05;;;6.00;;
20344;SDS011;10330;48.816;9.278;2023-11-22T19:42:02;11.73;;;6.45;;
20344;SDS011;10330;48.816;9.278;2023-11-22T19:44:29;16.45;;;8.75;;
20344;SDS011;10330;48.816;9.278;2023-11-22T19:46:56;20.20;;;7.38;;
20344;SDS011;10330;48.816;9.278;2023-11-22T19:49:22;11.38;;;5.40;;
20344;SDS011;10330;48.816;9.278;2023-11-22T19:51:48;6.63;;;5.18;;
20344;SDS011;10330;48.816;9.278;2023-11-22T19:54:14;8.32;;;5.95;;